createdAt,value
2023-02-08T00:09:47.153Z,65.22
2023-02-08T00:19:50.893Z,65.42
2023-02-08T00:30:08.689Z,64.79
2023-02-08T00:40:15.198Z,64.40
2023-02-08T00:50:22.234Z,64.37
2023-02-08T01:00:29.194Z,64.58
2023-02-08T01:10:38.527Z,65.23
2023-02-08T01:20:42.461Z,64.93
2023-02-08T01:30:46.517Z,64.87
2023-02-08T01:40:50.441Z,64.80
2023-02-08T01:51:03.419Z,64.98
2023-02-08T02:01:08.557Z,65.15
2023-02-08T02:11:13.437Z,65.40
2023-02-08T02:21:25.492Z,64.98
2023-02-08T02:31:52.768Z,65.02
2023-02-08T02:42:49.789Z,64.89
2023-02-08T02:53:03.317Z,64.84
2023-02-08T03:03:08.313Z,65.05
2023-02-08T03:13:31.688Z,64.80
2023-02-08T03:23:52.107Z,64.31
2023-02-08T03:34:03.895Z,63.92
2023-02-08T03:44:15.172Z,63.62
2023-02-08T03:54:25.235Z,63.16
2023-02-08T04:04:41.394Z,62.95
2023-02-08T04:14:45.301Z,62.92
2023-02-08T04:24:49.025Z,62.95
2023-02-08T04:34:53.686Z,62.85
2023-02-08T04:44:57.472Z,63.22
2023-02-08T04:55:01.254Z,62.82
2023-02-08T05:05:05.552Z,62.87
2023-02-08T05:15:09.964Z,62.88
2023-02-08T05:25:13.887Z,62.69
2023-02-08T05:35:17.771Z,62.90
2023-02-08T05:45:21.437Z,62.89
2023-02-08T05:55:27.311Z,62.83
2023-02-08T06:05:31.290Z,62.89
2023-02-08T06:15:35.015Z,63.25
2023-02-08T06:25:39.756Z,62.91
2023-02-08T06:35:48.068Z,62.57
2023-02-08T06:45:51.888Z,62.62
2023-02-08T06:55:55.743Z,62.69
2023-02-08T07:06:04.919Z,62.43
2023-02-08T07:16:10.364Z,62.21
2023-02-08T07:26:17.437Z,61.91
2023-02-08T07:36:23.227Z,61.94
2023-02-08T07:46:26.899Z,61.73
2023-02-08T07:56:30.810Z,61.54
2023-02-08T08:06:38.159Z,61.42
2023-02-08T08:16:44.062Z,61.61
2023-02-08T08:26:47.645Z,61.56
2023-02-08T08:36:51.183Z,60.97
2023-02-08T08:46:57.854Z,60.88
2023-02-08T08:57:02.343Z,60.87
2023-02-08T09:07:07.216Z,60.53
2023-02-08T09:17:12.770Z,60.15
2023-02-08T09:27:19.155Z,60.14
2023-02-08T09:37:25.668Z,59.78
2023-02-08T09:47:35.912Z,59.65
2023-02-08T09:57:39.795Z,58.94
2023-02-08T10:07:43.662Z,58.17
2023-02-08T10:18:08.043Z,57.66
2023-02-08T10:28:53.718Z,57.31
2023-02-08T10:38:59.477Z,56.99
2023-02-08T10:49:21.815Z,56.57
2023-02-08T10:59:49.779Z,56.05
2023-02-08T11:09:54.754Z,55.83
2023-02-08T11:20:01.963Z,55.54
2023-02-08T11:30:14.972Z,55.03
2023-02-08T11:40:24.588Z,54.78
2023-02-08T11:50:38.663Z,54.28
2023-02-08T12:00:57.399Z,53.85
2023-02-08T12:11:12.733Z,53.34
2023-02-08T12:21:29.707Z,53.28
2023-02-08T12:31:51.627Z,53.08
2023-02-08T12:42:01.092Z,52.56
2023-02-08T13:04:41.004Z,52.52
2023-02-08T13:15:11.939Z,52.49
2023-02-08T13:25:36.199Z,52.29
2023-02-08T13:35:42.655Z,52.57
2023-02-08T13:45:54.004Z,52.44
2023-02-08T13:56:00.437Z,53.03
2023-02-08T14:06:07.999Z,53.07
2023-02-08T14:16:30.054Z,53.26
2023-02-08T14:26:38.509Z,53.39
2023-02-08T14:36:43.254Z,54.06
2023-02-08T14:46:47.782Z,54.39
2023-02-08T14:57:02.768Z,54.80
2023-02-08T15:07:33.677Z,55.43
2023-02-08T15:17:43.914Z,55.76
2023-02-08T15:27:51.030Z,56.26
2023-02-08T15:37:56.280Z,56.96
2023-02-08T15:48:02.485Z,57.30
2023-02-08T15:58:28.747Z,57.61
2023-02-08T16:08:36.394Z,58.05
2023-02-08T16:18:44.406Z,58.45
2023-02-08T16:29:40.904Z,59.13
2023-02-08T16:39:52.477Z,59.52
2023-02-08T16:49:56.122Z,59.91
2023-02-08T17:00:01.924Z,60.37
2023-02-08T17:10:08.546Z,60.47
2023-02-08T17:20:36.337Z,60.87
2023-02-08T17:30:44.738Z,61.16
2023-02-08T17:40:49.456Z,61.72
2023-02-08T17:50:53.889Z,62.34
2023-02-08T18:00:57.622Z,62.21
2023-02-08T18:11:12.786Z,62.11
2023-02-08T18:21:19.500Z,62.23
2023-02-08T18:31:25.622Z,62.17
2023-02-08T18:41:30.660Z,62.39
2023-02-08T18:51:34.477Z,62.65
2023-02-08T19:01:40.045Z,63.28
2023-02-08T19:11:45.613Z,63.25
2023-02-08T19:21:50.990Z,63.26
2023-02-08T19:32:45.871Z,63.44
2023-02-08T19:43:25.209Z,63.63
2023-02-08T19:54:38.712Z,64.15
2023-02-08T20:05:06.203Z,65.56
2023-02-08T20:26:43.615Z,65.57
2023-02-08T20:37:05.660Z,64.88
2023-02-08T20:47:11.377Z,64.15
2023-02-08T20:57:15.626Z,63.03
2023-02-08T21:07:21.207Z,62.25
2023-02-08T21:17:24.858Z,61.54
2023-02-08T21:27:29.163Z,61.11
2023-02-08T21:37:34.146Z,60.43
2023-02-08T21:47:38.979Z,60.16
2023-02-08T21:57:42.607Z,60.04
2023-02-08T22:07:51.490Z,59.65
2023-02-08T22:17:57.865Z,59.65
2023-02-08T22:28:03.314Z,59.58
2023-02-08T22:38:07.015Z,59.33
2023-02-08T22:48:16.470Z,58.96
2023-02-08T22:58:22.340Z,58.86
2023-02-08T23:08:26.563Z,58.84
2023-02-08T23:18:30.079Z,58.66
2023-02-08T23:28:34.888Z,58.46
2023-02-08T23:38:42.104Z,58.49
2023-02-08T23:48:47.868Z,58.56
2023-02-08T23:58:54.509Z,58.43
